Time;durP1;ratioP1;P1;durP2;ratioP2;P2;SDS_P1;SDS_P2;PMS_P1;PMS_P2;Temp;Humidity;BMP_temperature;BMP_pressure;BME280_temperature;BME280_humidity;BME280_pressure;Samples;Min_cycle;Max_cycle;Signal;HPM_P1;HPM_P2
2023/11/29 00:02:23;;;;;;;;;;;19.90;63.00;;;;;;5021262;28;1411;-70
2023/11/29 00:04:48;;;;;;;;;;;19.90;63.00;;;;;;5021854;28;1910;-70
2023/11/29 00:07:15;;;;;;;;;;;19.90;63.00;;;;;;5021572;28;1524;-70
2023/11/29 00:09:41;;;;;;;;;;;19.90;63.00;;;;;;5020808;28;1475;-70
2023/11/29 00:12:07;;;;;;;;;;;19.90;63.00;;;;;;5006745;28;1712;-70
2023/11/29 00:14:32;;;;;;;;;;;19.90;63.80;;;;;;5022862;28;1357;-70
2023/11/29 00:16:58;;;;;;;;;;;19.90;63.00;;;;;;5021896;28;1390;-70
2023/11/29 00:19:23;;;;;;;;;;;19.90;63.10;;;;;;5020493;28;1303;-70
2023/11/29 00:21:49;;;;;;;;;;;19.90;63.10;;;;;;5004853;28;1538;-71
2023/11/29 00:24:14;;;;;;;;;;;19.90;63.10;;;;;;5020010;28;1377;-70
2023/11/29 00:26:40;;;;;;;;;;;19.90;63.10;;;;;;5020106;28;1910;-70
2023/11/29 00:29:06;;;;;;;;;;;19.90;63.10;;;;;;5021075;28;1183;-70
2023/11/29 00:31:31;;;;;;;;;;;19.90;63.10;;;;;;5019473;28;1096;-70
2023/11/29 00:33:56;;;;;;;;;;;19.90;63.10;;;;;;5021571;28;1473;-70
2023/11/29 00:36:22;;;;;;;;;;;19.90;63.10;;;;;;5019405;28;1455;-70
2023/11/29 00:38:47;;;;;;;;;;;19.90;63.10;;;;;;5019990;28;1634;-70
2023/11/29 00:41:13;;;;;;;;;;;19.90;63.10;;;;;;5019775;28;1877;-70
2023/11/29 00:43:39;;;;;;;;;;;19.90;63.20;;;;;;5021326;28;1314;-70
2023/11/29 00:46:04;;;;;;;;;;;19.90;63.20;;;;;;5021524;28;1905;-70
2023/11/29 00:48:30;;;;;;;;;;;19.90;63.20;;;;;;5008338;28;1029;-70
2023/11/29 00:50:56;;;;;;;;;;;19.90;63.20;;;;;;5018932;28;887;-70
2023/11/29 00:53:22;;;;;;;;;;;19.80;63.10;;;;;;5019410;28;1272;-70
2023/11/29 00:55:47;;;;;;;;;;;19.80;63.20;;;;;;5017837;28;1280;-70
2023/11/29 00:58:12;;;;;;;;;;;19.90;63.30;;;;;;5008541;28;1517;-70
2023/11/29 01:00:38;;;;;;;;;;;19.80;63.10;;;;;;5020587;28;1433;-70
2023/11/29 01:03:03;;;;;;;;;;;19.80;63.20;;;;;;5023293;28;1236;-70
2023/11/29 01:05:29;;;;;;;;;;;19.80;63.20;;;;;;5021447;28;1977;-70
2023/11/29 01:07:56;;;;;;;;;;;19.80;63.20;;;;;;5017710;28;1691;-70
2023/11/29 01:10:21;;;;;;;;;;;19.80;63.20;;;;;;5021709;28;1420;-70
2023/11/29 01:12:47;;;;;;;;;;;19.80;63.30;;;;;;5006114;28;1150;-70
2023/11/29 01:15:12;;;;;;;;;;;19.80;63.20;;;;;;5018803;28;1390;-70
2023/11/29 01:17:38;;;;;;;;;;;19.80;63.20;;;;;;5019801;28;1698;-70
2023/11/29 01:20:04;;;;;;;;;;;19.80;63.40;;;;;;5002905;28;1486;-70
2023/11/29 01:22:29;;;;;;;;;;;19.80;63.20;;;;;;5020956;28;1347;-70
2023/11/29 01:24:55;;;;;;;;;;;19.80;63.20;;;;;;5020674;28;1958;-70
2023/11/29 01:27:20;;;;;;;;;;;19.80;63.40;;;;;;5020675;28;1529;-70
2023/11/29 01:29:46;;;;;;;;;;;19.80;63.30;;;;;;5019179;28;1560;-70
2023/11/29 01:32:11;;;;;;;;;;;19.80;63.30;;;;;;5022090;28;1501;-71
2023/11/29 01:34:39;;;;;;;;;;;19.80;63.40;;;;;;5023045;28;1335;-70
2023/11/29 01:37:05;;;;;;;;;;;19.80;63.40;;;;;;5008190;28;1295;-70
2023/11/29 01:39:30;;;;;;;;;;;19.70;63.40;;;;;;5022486;28;1343;-70
2023/11/29 01:41:56;;;;;;;;;;;19.80;63.40;;;;;;5023056;28;1270;-70
2023/11/29 01:44:21;;;;;;;;;;;19.70;63.30;;;;;;5022767;28;1962;-70
2023/11/29 01:46:47;;;;;;;;;;;19.80;63.40;;;;;;5024570;28;1481;-70
2023/11/29 01:49:12;;;;;;;;;;;19.70;63.40;;;;;;5022085;28;1279;-70
2023/11/29 01:51:38;;;;;;;;;;;19.70;63.40;;;;;;5021791;28;1384;-70
2023/11/29 01:54:04;;;;;;;;;;;19.70;63.40;;;;;;5024948;28;1429;-70
2023/11/29 01:56:29;;;;;;;;;;;19.70;63.40;;;;;;5004228;28;1480;-70
2023/11/29 01:58:55;;;;;;;;;;;19.70;63.40;;;;;;5022426;28;1463;-71
2023/11/29 02:01:20;;;;;;;;;;;19.70;63.40;;;;;;5022969;28;1390;-71
2023/11/29 02:03:46;;;;;;;;;;;19.70;63.40;;;;;;5022769;28;1460;-70
2023/11/29 02:06:11;;;;;;;;;;;19.70;63.40;;;;;;5009067;28;1914;-70
2023/11/29 02:08:37;;;;;;;;;;;19.70;63.50;;;;;;5024082;28;1332;-70
2023/11/29 02:11:02;;;;;;;;;;;19.70;63.50;;;;;;5024744;28;1252;-70
2023/11/29 02:13:28;;;;;;;;;;;19.70;63.50;;;;;;5025404;28;1366;-70
2023/11/29 02:15:53;;;;;;;;;;;19.70;63.50;;;;;;5025751;28;1300;-70
2023/11/29 02:18:18;;;;;;;;;;;19.70;63.50;;;;;;5023250;28;1477;-70
2023/11/29 02:20:44;;;;;;;;;;;19.70;63.50;;;;;;5023965;28;1594;-70
2023/11/29 02:23:45;;;;;;;;;;;19.70;63.50;;;;;;5010009;28;1547;-71
2023/11/29 02:26:10;;;;;;;;;;;19.70;63.50;;;;;;4926178;29;1898;-70
2023/11/29 02:28:36;;;;;;;;;;;19.70;63.50;;;;;;4985403;28;1251;-70
2023/11/29 02:31:01;;;;;;;;;;;19.70;63.50;;;;;;5019637;28;1258;-70
2023/11/29 02:33:27;;;;;;;;;;;19.70;63.60;;;;;;5020407;28;1315;-70
2023/11/29 02:35:52;;;;;;;;;;;19.70;63.50;;;;;;5023088;28;1330;-70
2023/11/29 02:38:18;;;;;;;;;;;19.70;63.60;;;;;;5021242;28;1336;-70
2023/11/29 02:40:43;;;;;;;;;;;19.70;63.60;;;;;;5023800;28;1541;-70
2023/11/29 02:43:09;;;;;;;;;;;19.70;63.60;;;;;;5002225;28;1517;-70
2023/11/29 02:45:34;;;;;;;;;;;19.70;63.60;;;;;;5021898;28;1962;-70
2023/11/29 02:48:00;;;;;;;;;;;19.60;63.60;;;;;;5021680;28;1309;-70
2023/11/29 02:50:26;;;;;;;;;;;19.60;63.60;;;;;;5023036;28;1317;-70
2023/11/29 02:52:51;;;;;;;;;;;19.60;63.60;;;;;;5022952;28;1244;-71
2023/11/29 02:55:17;;;;;;;;;;;19.60;63.60;;;;;;5023131;28;1606;-70
2023/11/29 02:57:42;;;;;;;;;;;19.60;63.60;;;;;;5022992;28;1596;-70
2023/11/29 03:00:09;;;;;;;;;;;19.60;63.60;;;;;;5023397;28;1476;-70
2023/11/29 03:02:34;;;;;;;;;;;19.60;63.70;;;;;;5002699;28;1376;-70
2023/11/29 03:05:00;;;;;;;;;;;19.60;63.70;;;;;;5011393;28;1968;-71
2023/11/29 03:07:25;;;;;;;;;;;19.60;63.80;;;;;;5004503;28;1419;-70
2023/11/29 03:09:51;;;;;;;;;;;19.60;63.70;;;;;;5002947;28;1401;-70
2023/11/29 03:12:16;;;;;;;;;;;19.60;63.70;;;;;;5027087;28;1452;-70
2023/11/29 03:14:42;;;;;;;;;;;19.60;63.70;;;;;;5025117;28;1411;-70
2023/11/29 03:17:07;;;;;;;;;;;19.60;63.80;;;;;;5022807;28;1468;-70
2023/11/29 03:19:33;;;;;;;;;;;19.60;63.70;;;;;;5020567;28;1233;-70
2023/11/29 03:21:58;;;;;;;;;;;19.60;63.70;;;;;;5024918;28;1303;-70
2023/11/29 03:24:23;;;;;;;;;;;19.60;63.70;;;;;;5005770;28;1906;-70
2023/11/29 03:26:49;;;;;;;;;;;19.60;63.70;;;;;;5018124;28;1269;-71
2023/11/29 03:29:14;;;;;;;;;;;19.60;63.60;;;;;;5003551;28;1755;-71
2023/11/29 03:31:40;;;;;;;;;;;19.60;63.60;;;;;;5023334;28;1371;-70
2023/11/29 03:34:05;;;;;;;;;;;19.60;63.50;;;;;;5020507;28;1467;-70
2023/11/29 03:36:31;;;;;;;;;;;19.60;63.50;;;;;;5021834;28;1389;-70
2023/11/29 03:38:56;;;;;;;;;;;19.60;63.50;;;;;;5020389;28;1398;-70
2023/11/29 03:41:22;;;;;;;;;;;19.60;63.50;;;;;;5022531;28;1513;-70
2023/11/29 03:43:47;;;;;;;;;;;19.60;63.50;;;;;;5023909;28;1492;-70
2023/11/29 03:46:13;;;;;;;;;;;19.60;63.50;;;;;;5002133;28;1906;-70
2023/11/29 03:48:38;;;;;;;;;;;19.60;63.50;;;;;;5020880;28;1095;-70
2023/11/29 03:51:04;;;;;;;;;;;19.60;63.50;;;;;;5023034;28;1380;-70
2023/11/29 03:53:29;;;;;;;;;;;19.60;63.50;;;;;;5020190;28;1473;-70
2023/11/29 03:55:54;;;;;;;;;;;19.60;63.50;;;;;;5018166;28;1366;-70
2023/11/29 03:58:20;;;;;;;;;;;19.60;63.60;;;;;;5023549;28;1386;-70
2023/11/29 04:00:45;;;;;;;;;;;19.60;63.50;;;;;;5024185;28;1273;-70
2023/11/29 04:03:11;;;;;;;;;;;19.60;63.50;;;;;;5022367;28;1444;-70
2023/11/29 04:05:36;;;;;;;;;;;19.60;63.50;;;;;;5023545;28;1918;-70
2023/11/29 04:08:02;;;;;;;;;;;19.60;63.50;;;;;;5020338;28;1460;-70
2023/11/29 04:10:29;;;;;;;;;;;19.60;63.60;;;;;;5003571;28;1561;-70
2023/11/29 04:12:55;;;;;;;;;;;19.60;63.60;;;;;;5019234;28;1377;-70
2023/11/29 04:15:20;;;;;;;;;;;19.60;63.60;;;;;;5020684;28;1300;-70
2023/11/29 04:17:46;;;;;;;;;;;19.60;63.60;;;;;;5020617;28;1286;-70
2023/11/29 04:20:11;;;;;;;;;;;19.60;63.50;;;;;;5008169;28;1681;-70
2023/11/29 04:22:38;;;;;;;;;;;19.60;63.60;;;;;;5021258;28;1315;-70
2023/11/29 04:25:05;;;;;;;;;;;19.60;63.60;;;;;;5018994;28;1969;-70
2023/11/29 04:27:30;;;;;;;;;;;19.60;63.50;;;;;;5020653;28;1290;-70
2023/11/29 04:29:56;;;;;;;;;;;19.60;63.60;;;;;;5019640;28;1387;-70
2023/11/29 04:32:21;;;;;;;;;;;19.60;63.50;;;;;;5019413;28;1390;-71
2023/11/29 04:34:47;;;;;;;;;;;19.60;63.60;;;;;;5018359;28;1391;-70
2023/11/29 04:37:12;;;;;;;;;;;19.60;63.50;;;;;;5022404;28;1561;-70
2023/11/29 04:39:38;;;;;;;;;;;19.60;63.60;;;;;;5019040;28;1382;-70
2023/11/29 04:42:03;;;;;;;;;;;19.60;63.50;;;;;;5019101;28;1363;-70
2023/11/29 04:44:29;;;;;;;;;;;19.60;63.50;;;;;;5020787;28;1906;-70
2023/11/29 04:46:54;;;;;;;;;;;19.60;63.60;;;;;;5020192;28;1309;-71
2023/11/29 04:49:20;;;;;;;;;;;19.60;63.60;;;;;;5021969;28;1261;-70
2023/11/29 04:51:45;;;;;;;;;;;19.60;63.60;;;;;;5022804;28;1503;-70
2023/11/29 04:54:11;;;;;;;;;;;19.60;63.60;;;;;;5018099;28;840;-70
2023/11/29 04:56:36;;;;;;;;;;;19.50;63.50;;;;;;5021115;28;1346;-70
2023/11/29 04:59:02;;;;;;;;;;;19.50;63.50;;;;;;5018597;28;1333;-70
2023/11/29 05:01:27;;;;;;;;;;;19.50;63.60;;;;;;5020457;28;907;-70
2023/11/29 05:03:53;;;;;;;;;;;19.50;63.60;;;;;;5022164;28;1347;-70
2023/11/29 05:06:20;;;;;;;;;;;19.50;63.60;;;;;;5023130;28;1922;-70
2023/11/29 05:08:45;;;;;;;;;;;19.50;63.60;;;;;;5023719;28;1360;-70
2023/11/29 05:11:10;;;;;;;;;;;19.50;63.80;;;;;;5007430;28;1376;-70
2023/11/29 05:13:36;;;;;;;;;;;19.60;63.90;;;;;;5025009;28;1543;-70
2023/11/29 05:16:02;;;;;;;;;;;19.70;63.90;;;;;;5023331;28;1464;-70
2023/11/29 05:18:27;;;;;;;;;;;19.80;63.90;;;;;;5012001;28;1524;-70
2023/11/29 05:20:53;;;;;;;;;;;19.90;63.70;;;;;;5025674;28;1393;-70
2023/11/29 05:23:18;;;;;;;;;;;20.00;63.50;;;;;;5023071;28;1247;-70
2023/11/29 05:25:44;;;;;;;;;;;20.10;63.10;;;;;;5024726;28;1898;-71
2023/11/29 05:28:09;;;;;;;;;;;20.30;62.70;;;;;;5010083;28;1356;-70
2023/11/29 05:30:35;;;;;;;;;;;20.40;62.30;;;;;;5025044;28;1260;-69
2023/11/29 05:33:03;;;;;;;;;;;20.60;61.90;;;;;;5024534;28;1373;-69
2023/11/29 05:35:29;;;;;;;;;;;20.70;61.60;;;;;;5025329;28;1479;-70
2023/11/29 05:37:55;;;;;;;;;;;20.80;61.20;;;;;;5024649;28;1267;-70
2023/11/29 05:40:20;;;;;;;;;;;21.00;60.90;;;;;;5022670;28;1327;-70
2023/11/29 05:42:46;;;;;;;;;;;21.10;60.70;;;;;;5024475;28;1339;-70
2023/11/29 05:45:11;;;;;;;;;;;21.20;60.30;;;;;;5021359;28;1895;-70
2023/11/29 05:47:37;;;;;;;;;;;21.30;60.00;;;;;;5023847;28;1456;-70
2023/11/29 05:50:03;;;;;;;;;;;21.40;59.80;;;;;;5025479;28;1255;-70
2023/11/29 05:52:28;;;;;;;;;;;21.50;59.60;;;;;;5025279;28;1466;-70
2023/11/29 05:54:54;;;;;;;;;;;21.60;59.40;;;;;;5024707;28;1473;-69
2023/11/29 05:57:19;;;;;;;;;;;21.60;59.20;;;;;;5023112;28;1372;-70
2023/11/29 05:59:45;;;;;;;;;;;21.70;59.00;;;;;;5022312;28;1352;-70
2023/11/29 06:02:10;;;;;;;;;;;21.80;58.80;;;;;;5023423;28;1337;-70
2023/11/29 06:04:37;;;;;;;;;;;21.90;58.70;;;;;;5024122;28;1902;-70
2023/11/29 06:07:02;;;;;;;;;;;21.90;58.50;;;;;;5022067;28;1261;-70
2023/11/29 06:09:31;;;;;;;;;;;22.00;58.50;;;;;;5010804;28;1122;-70
2023/11/29 06:11:59;;;;;;;;;;;22.00;58.30;;;;;;5021237;28;1236;-70
2023/11/29 06:14:27;;;;;;;;;;;22.10;58.30;;;;;;5022857;28;1088;-70
2023/11/29 06:16:53;;;;;;;;;;;22.10;58.10;;;;;;5023975;28;1371;-70
2023/11/29 06:19:20;;;;;;;;;;;22.20;58.10;;;;;;5004580;28;1251;-70
2023/11/29 06:21:46;;;;;;;;;;;22.20;58.00;;;;;;5024387;28;1244;-70
2023/11/29 06:24:12;;;;;;;;;;;22.20;57.90;;;;;;5025421;28;1418;-70
2023/11/29 06:26:37;;;;;;;;;;;22.30;57.90;;;;;;5024108;28;1964;-69
2023/11/29 06:29:04;;;;;;;;;;;22.30;57.80;;;;;;5005405;28;1420;-70
2023/11/29 06:31:30;;;;;;;;;;;22.30;57.70;;;;;;5021667;28;1338;-70
2023/11/29 06:33:55;;;;;;;;;;;22.40;57.70;;;;;;5022679;28;1349;-70
2023/11/29 06:36:21;;;;;;;;;;;22.40;57.70;;;;;;5024707;28;1439;-70
2023/11/29 06:38:47;;;;;;;;;;;22.40;57.70;;;;;;5005007;28;1428;-70
2023/11/29 06:41:12;;;;;;;;;;;22.40;57.60;;;;;;5022521;28;1443;-70
2023/11/29 06:43:38;;;;;;;;;;;22.40;57.60;;;;;;5021226;28;1233;-70
2023/11/29 06:46:04;;;;;;;;;;;22.40;57.60;;;;;;5024827;28;1899;-71
2023/11/29 06:48:31;;;;;;;;;;;22.50;57.60;;;;;;5022731;28;1403;-70
2023/11/29 06:51:00;;;;;;;;;;;22.40;57.00;;;;;;5024615;28;1416;-70
2023/11/29 06:53:29;;;;;;;;;;;22.30;53.30;;;;;;5024046;28;1483;-70
2023/11/29 06:55:55;;;;;;;;;;;22.30;53.80;;;;;;5026926;28;1379;-70
2023/11/29 06:58:20;;;;;;;;;;;22.30;53.70;;;;;;5020218;28;1467;-70
2023/11/29 07:00:46;;;;;;;;;;;22.30;53.90;;;;;;5010179;28;1247;-70
2023/11/29 07:03:12;;;;;;;;;;;22.20;54.20;;;;;;5014449;28;2254;-68
2023/11/29 07:05:37;;;;;;;;;;;22.20;54.50;;;;;;5021546;28;2001;-68
2023/11/29 07:08:03;;;;;;;;;;;22.20;54.90;;;;;;5022050;28;1480;-69
2023/11/29 07:10:30;;;;;;;;;;;22.20;55.00;;;;;;5004521;28;1828;-69
2023/11/29 07:12:56;;;;;;;;;;;22.20;55.30;;;;;;5020565;28;1509;-69
2023/11/29 07:15:21;;;;;;;;;;;22.20;55.60;;;;;;5021826;28;1454;-69
2023/11/29 07:17:47;;;;;;;;;;;22.20;55.70;;;;;;5021017;28;1369;-68
2023/11/29 07:20:12;;;;;;;;;;;22.10;55.90;;;;;;5005483;28;1104;-70
2023/11/29 07:22:38;;;;;;;;;;;22.10;56.00;;;;;;5024493;28;1471;-71
2023/11/29 07:25:04;;;;;;;;;;;22.10;56.10;;;;;;5001125;28;1899;-70
2023/11/29 07:27:29;;;;;;;;;;;22.10;56.10;;;;;;5018890;28;1312;-70
2023/11/29 07:29:55;;;;;;;;;;;22.10;56.30;;;;;;5022640;28;1510;-70
2023/11/29 07:32:22;;;;;;;;;;;22.00;56.40;;;;;;5018736;28;1629;-70
2023/11/29 07:34:51;;;;;;;;;;;22.00;56.50;;;;;;5023859;28;1442;-69
2023/11/29 07:37:18;;;;;;;;;;;22.00;56.60;;;;;;5019739;28;1322;-70
2023/11/29 07:39:44;;;;;;;;;;;22.00;56.70;;;;;;5020999;28;1246;-70
2023/11/29 07:42:09;;;;;;;;;;;21.90;56.80;;;;;;5023578;28;1116;-69
2023/11/29 07:44:35;;;;;;;;;;;21.90;56.90;;;;;;5018897;28;1914;-70
2023/11/29 07:47:00;;;;;;;;;;;21.90;57.00;;;;;;5002844;28;1469;-69
2023/11/29 07:49:26;;;;;;;;;;;21.80;57.00;;;;;;5019398;28;1330;-69
2023/11/29 07:51:51;;;;;;;;;;;21.80;57.20;;;;;;5022617;28;1184;-69
2023/11/29 07:54:17;;;;;;;;;;;21.80;57.30;;;;;;5021569;28;1628;-69
2023/11/29 07:56:42;;;;;;;;;;;21.80;57.40;;;;;;5021645;28;1256;-69
2023/11/29 07:59:09;;;;;;;;;;;21.70;57.50;;;;;;5021621;28;1884;-69
2023/11/29 08:01:34;;;;;;;;;;;21.70;57.60;;;;;;5022994;28;2098;-69
2023/11/29 08:04:00;;;;;;;;;;;21.70;57.60;;;;;;5002200;28;1603;-69
2023/11/29 08:06:28;;;;;;;;;;;21.70;57.70;;;;;;5007604;28;1899;-69
2023/11/29 08:08:56;;;;;;;;;;;21.60;57.80;;;;;;5020976;28;1926;-69
2023/11/29 08:11:22;;;;;;;;;;;21.60;58.10;;;;;;5007926;28;2033;-69
2023/11/29 08:13:47;;;;;;;;;;;21.60;58.60;;;;;;5004554;28;1983;-69
2023/11/29 08:16:13;;;;;;;;;;;21.60;58.40;;;;;;5023331;28;1545;-69
2023/11/29 08:18:38;;;;;;;;;;;21.60;58.70;;;;;;5022925;28;1398;-69
2023/11/29 08:21:04;;;;;;;;;;;21.60;59.00;;;;;;5021580;28;1346;-69
2023/11/29 08:23:29;;;;;;;;;;;21.50;59.00;;;;;;5021441;28;1415;-69
2023/11/29 08:25:55;;;;;;;;;;;21.50;59.30;;;;;;5023516;28;1894;-69
2023/11/29 08:28:21;;;;;;;;;;;21.50;60.00;;;;;;5007866;28;1323;-69
2023/11/29 08:30:46;;;;;;;;;;;21.50;59.60;;;;;;5007877;28;1350;-69
2023/11/29 08:33:12;;;;;;;;;;;21.50;60.30;;;;;;5024978;28;1439;-68
2023/11/29 08:35:37;;;;;;;;;;;21.40;60.20;;;;;;5011638;28;1504;-69
2023/11/29 08:38:02;;;;;;;;;;;21.40;60.00;;;;;;5018189;28;1388;-69
2023/11/29 08:40:28;;;;;;;;;;;21.40;60.10;;;;;;5025897;28;1467;-69
2023/11/29 08:42:53;;;;;;;;;;;21.40;60.10;;;;;;5024863;28;1562;-69
2023/11/29 08:45:19;;;;;;;;;;;21.40;60.40;;;;;;5023426;28;1962;-69
2023/11/29 08:47:45;;;;;;;;;;;21.40;60.50;;;;;;5022054;28;1472;-69
2023/11/29 08:50:11;;;;;;;;;;;21.30;60.50;;;;;;5022682;28;1684;-69
2023/11/29 08:52:36;;;;;;;;;;;21.30;60.60;;;;;;5022600;28;1340;-69
2023/11/29 08:55:02;;;;;;;;;;;21.30;60.80;;;;;;4987495;28;1541;-69
2023/11/29 08:57:29;;;;;;;;;;;21.30;60.90;;;;;;5010923;28;1037;-69
2023/11/29 08:59:55;;;;;;;;;;;21.30;60.90;;;;;;5022562;28;1554;-69
2023/11/29 09:02:20;;;;;;;;;;;21.30;61.20;;;;;;5021562;28;1305;-69
2023/11/29 09:04:46;;;;;;;;;;;21.30;61.20;;;;;;5009046;28;1910;-69
2023/11/29 09:07:12;;;;;;;;;;;21.30;61.30;;;;;;5020455;28;1383;-69
2023/11/29 09:09:37;;;;;;;;;;;21.30;61.80;;;;;;5006446;28;1339;-69
2023/11/29 09:12:03;;;;;;;;;;;21.30;61.50;;;;;;5022758;28;1457;-69
2023/11/29 09:14:29;;;;;;;;;;;21.30;61.50;;;;;;5021480;28;1169;-69
2023/11/29 09:16:56;;;;;;;;;;;21.30;61.70;;;;;;5020177;28;1347;-69
2023/11/29 09:19:22;;;;;;;;;;;21.30;61.40;;;;;;5005559;28;1292;-68
2023/11/29 09:21:48;;;;;;;;;;;21.30;61.40;;;;;;5021497;28;1396;-69
2023/11/29 09:24:14;;;;;;;;;;;21.30;61.70;;;;;;5022985;28;1330;-69
2023/11/29 09:26:40;;;;;;;;;;;21.30;61.50;;;;;;5026066;28;1910;-69
2023/11/29 09:29:05;;;;;;;;;;;21.30;61.50;;;;;;5000223;28;1674;-69
2023/11/29 09:31:31;;;;;;;;;;;21.30;61.50;;;;;;5021584;28;1449;-69
2023/11/29 09:33:57;;;;;;;;;;;21.30;61.40;;;;;;5010038;28;1553;-69
2023/11/29 09:36:22;;;;;;;;;;;21.40;61.50;;;;;;5018405;28;1504;-69
2023/11/29 09:38:48;;;;;;;;;;;21.40;61.50;;;;;;5020615;28;1456;-69
2023/11/29 09:41:13;;;;;;;;;;;21.40;61.50;;;;;;5019960;28;1423;-69
2023/11/29 09:43:39;;;;;;;;;;;21.40;61.50;;;;;;5022632;28;1421;-69
2023/11/29 09:46:04;;;;;;;;;;;21.40;61.60;;;;;;5009938;28;1906;-69
2023/11/29 09:48:30;;;;;;;;;;;21.40;61.50;;;;;;5004932;28;1510;-69
2023/11/29 09:50:55;;;;;;;;;;;21.40;61.50;;;;;;4984034;28;1282;-69
2023/11/29 09:53:21;;;;;;;;;;;21.40;61.60;;;;;;5012804;28;1829;-69
2023/11/29 09:55:46;;;;;;;;;;;21.40;61.70;;;;;;5025112;28;1439;-69
2023/11/29 09:58:12;;;;;;;;;;;21.40;61.80;;;;;;5005534;28;1427;-69
2023/11/29 10:00:37;;;;;;;;;;;21.40;61.70;;;;;;5009945;28;1615;-69
2023/11/29 10:03:13;;;;;;;;;;;21.40;62.10;;;;;;5004718;28;1682;-68
2023/11/29 10:05:45;;;;;;;;;;;21.40;62.20;;;;;;5010059;28;1910;-68
2023/11/29 10:08:13;;;;;;;;;;;21.40;62.20;;;;;;5020688;28;1384;-70
2023/11/29 10:10:38;;;;;;;;;;;21.40;62.40;;;;;;5020864;28;1268;-70
2023/11/29 10:13:04;;;;;;;;;;;21.40;62.10;;;;;;5023839;28;1504;-69
2023/11/29 10:15:30;;;;;;;;;;;21.40;62.30;;;;;;5022116;28;1406;-69
2023/11/29 10:17:55;;;;;;;;;;;21.40;62.20;;;;;;5024069;28;1466;-69
2023/11/29 10:20:25;;;;;;;;;;;21.40;62.20;;;;;;5022340;28;1641;-69
2023/11/29 10:22:51;;;;;;;;;;;21.40;62.30;;;;;;5023980;28;1390;-69
2023/11/29 10:25:19;;;;;;;;;;;21.40;62.40;;;;;;5021771;28;1906;-69
2023/11/29 10:27:45;;;;;;;;;;;21.30;62.30;;;;;;5024646;28;1515;-69
2023/11/29 10:30:11;;;;;;;;;;;21.30;62.30;;;;;;5024436;28;1444;-69
2023/11/29 10:32:37;;;;;;;;;;;21.30;62.30;;;;;;5024252;28;1313;-69
2023/11/29 10:35:03;;;;;;;;;;;21.30;62.40;;;;;;5005642;28;1447;-69
2023/11/29 10:37:28;;;;;;;;;;;21.40;62.50;;;;;;5006019;28;1321;-69
2023/11/29 10:39:54;;;;;;;;;;;21.30;62.40;;;;;;5005461;28;1479;-69
2023/11/29 10:42:19;;;;;;;;;;;21.40;62.40;;;;;;5009276;28;1362;-69
2023/11/29 10:44:45;;;;;;;;;;;21.40;62.30;;;;;;5006030;28;1910;-69
2023/11/29 10:47:23;;;;;;;;;;;21.40;62.30;;;;;;5012077;28;1453;-69
2023/11/29 10:49:50;;;;;;;;;;;21.40;62.10;;;;;;5002737;28;1428;-69
2023/11/29 10:52:19;;;;;;;;;;;21.50;62.10;;;;;;4994087;28;2213;-69
2023/11/29 10:54:45;;;;;;;;;;;21.50;61.90;;;;;;4999732;28;1969;-69
2023/11/29 10:57:11;;;;;;;;;;;21.60;61.80;;;;;;5007988;28;1404;-69
2023/11/29 10:59:37;;;;;;;;;;;21.60;62.00;;;;;;5020760;28;1231;-69
2023/11/29 11:02:02;;;;;;;;;;;21.70;62.10;;;;;;5009286;28;1280;-69
2023/11/29 11:04:31;;;;;;;;;;;21.70;62.20;;;;;;5021152;28;1251;-69
2023/11/29 11:06:57;;;;;;;;;;;21.70;61.70;;;;;;5005189;28;1890;-69
2023/11/29 11:09:30;;;;;;;;;;;21.80;61.80;;;;;;4987818;28;2286;-69
2023/11/29 11:11:57;;;;;;;;;;;21.70;61.60;;;;;;5009256;28;1562;-70
2023/11/29 11:14:25;;;;;;;;;;;21.80;61.70;;;;;;5020082;28;1675;-69
2023/11/29 11:16:55;;;;;;;;;;;21.80;61.60;;;;;;5010552;28;1451;-69
2023/11/29 11:19:30;;;;;;;;;;;21.80;61.60;;;;;;5022226;28;1755;-69
2023/11/29 11:21:56;;;;;;;;;;;21.80;61.60;;;;;;5006111;28;1701;-69
2023/11/29 11:24:41;;;;;;;;;;;21.80;62.10;;;;;;5004820;28;1634;-70
2023/11/29 11:27:07;;;;;;;;;;;21.80;61.90;;;;;;5020723;28;1408;-69
2023/11/29 11:29:33;;;;;;;;;;;21.80;62.10;;;;;;5022239;28;1519;-69
2023/11/29 11:31:58;;;;;;;;;;;21.80;62.00;;;;;;5006809;28;1464;-69
2023/11/29 11:34:24;;;;;;;;;;;21.80;62.00;;;;;;5019323;28;1459;-69
2023/11/29 11:36:49;;;;;;;;;;;21.80;62.00;;;;;;5023141;28;1434;-69
2023/11/29 11:39:15;;;;;;;;;;;21.80;62.00;;;;;;5018713;28;1441;-69
2023/11/29 11:41:40;;;;;;;;;;;21.80;62.00;;;;;;5005943;28;1525;-69
2023/11/29 11:44:05;;;;;;;;;;;21.80;62.10;;;;;;5020722;28;1548;-69
2023/11/29 11:46:32;;;;;;;;;;;21.80;62.30;;;;;;5018690;28;1897;-69
2023/11/29 11:48:57;;;;;;;;;;;21.80;62.30;;;;;;5021882;28;1891;-69
2023/11/29 11:51:23;;;;;;;;;;;21.70;62.40;;;;;;5019589;28;2067;-69
2023/11/29 11:53:50;;;;;;;;;;;21.70;62.40;;;;;;5021438;28;1956;-69
2023/11/29 11:56:18;;;;;;;;;;;21.70;62.50;;;;;;5021797;28;2112;-70
2023/11/29 11:58:44;;;;;;;;;;;21.70;63.50;;;;;;5022487;28;1952;-69
2023/11/29 12:01:09;;;;;;;;;;;21.60;62.80;;;;;;5020163;28;1990;-69
2023/11/29 12:03:35;;;;;;;;;;;21.70;62.90;;;;;;5002544;28;1537;-69
2023/11/29 12:06:04;;;;;;;;;;;21.60;62.90;;;;;;4998960;28;1985;-69
2023/11/29 12:08:32;;;;;;;;;;;21.60;62.90;;;;;;5022648;28;1461;-69
2023/11/29 12:10:58;;;;;;;;;;;21.60;62.90;;;;;;5018562;28;1936;-69
2023/11/29 12:13:23;;;;;;;;;;;21.60;63.00;;;;;;5007243;28;1477;-69
2023/11/29 12:15:48;;;;;;;;;;;21.60;62.90;;;;;;5022449;28;2187;-69
2023/11/29 12:18:15;;;;;;;;;;;21.60;63.10;;;;;;5020822;28;1356;-69
2023/11/29 12:20:41;;;;;;;;;;;21.60;63.00;;;;;;5017421;28;1666;-69
2023/11/29 12:23:06;;;;;;;;;;;21.60;63.00;;;;;;5008630;28;1710;-69
2023/11/29 12:25:32;;;;;;;;;;;21.60;62.90;;;;;;5016963;28;1898;-69
2023/11/29 12:27:59;;;;;;;;;;;21.60;62.90;;;;;;5008431;28;1503;-69
2023/11/29 12:30:24;;;;;;;;;;;21.60;62.90;;;;;;5020796;28;1592;-69
2023/11/29 12:32:49;;;;;;;;;;;21.60;63.20;;;;;;5023122;28;1557;-69
2023/11/29 12:35:15;;;;;;;;;;;21.60;63.40;;;;;;5021062;28;1450;-69
2023/11/29 12:37:43;;;;;;;;;;;21.50;63.40;;;;;;5019515;28;1696;-69
2023/11/29 12:40:09;;;;;;;;;;;21.50;63.40;;;;;;5020340;28;1354;-69
2023/11/29 12:42:35;;;;;;;;;;;21.50;63.50;;;;;;5020089;28;2028;-69
2023/11/29 12:45:00;;;;;;;;;;;21.50;63.20;;;;;;5009062;28;2007;-68
2023/11/29 12:47:30;;;;;;;;;;;21.50;63.30;;;;;;5022875;28;1399;-69
2023/11/29 12:49:56;;;;;;;;;;;21.50;63.60;;;;;;5019316;28;1328;-68
2023/11/29 12:52:21;;;;;;;;;;;21.50;63.80;;;;;;5004790;28;1471;-69
2023/11/29 12:54:47;;;;;;;;;;;21.50;63.90;;;;;;5020253;28;1336;-69
2023/11/29 12:57:12;;;;;;;;;;;21.50;63.80;;;;;;5018610;28;1402;-69
2023/11/29 12:59:38;;;;;;;;;;;21.50;63.90;;;;;;5019873;28;1477;-68
2023/11/29 13:02:04;;;;;;;;;;;21.50;63.90;;;;;;5007583;28;1961;-69
2023/11/29 13:04:30;;;;;;;;;;;21.50;64.20;;;;;;5022029;28;1981;-69
2023/11/29 13:06:56;;;;;;;;;;;21.50;60.50;;;;;;5022202;28;1934;-69
2023/11/29 13:09:21;;;;;;;;;;;21.40;54.90;;;;;;5018703;28;1453;-69
2023/11/29 13:11:47;;;;;;;;;;;21.40;52.60;;;;;;5022441;28;1388;-69
2023/11/29 13:14:12;;;;;;;;;;;21.30;52.00;;;;;;5006682;28;1241;-69
2023/11/29 13:16:38;;;;;;;;;;;21.20;51.40;;;;;;5020534;28;1957;-69
2023/11/29 13:19:03;;;;;;;;;;;21.10;50.90;;;;;;5021421;28;1448;-69
2023/11/29 13:21:32;;;;;;;;;;;21.10;50.50;;;;;;5000565;28;1382;-70
2023/11/29 13:23:58;;;;;;;;;;;21.00;50.10;;;;;;5021502;28;1990;-68
2023/11/29 13:26:24;;;;;;;;;;;20.90;50.00;;;;;;5008266;28;5513;-71
2023/11/29 13:28:50;;;;;;;;;;;20.90;51.00;;;;;;5040290;28;4320;-69
2023/11/29 13:31:16;;;;;;;;;;;20.80;51.40;;;;;;5045208;28;1451;-69
2023/11/29 13:33:41;;;;;;;;;;;20.80;52.10;;;;;;5033473;28;986;-68
2023/11/29 13:36:07;;;;;;;;;;;20.80;52.80;;;;;;5043590;28;2118;-70
2023/11/29 13:38:32;;;;;;;;;;;20.80;53.30;;;;;;5033707;28;2141;-69
2023/11/29 13:40:58;;;;;;;;;;;20.80;53.80;;;;;;5045439;28;1332;-69
2023/11/29 13:43:23;;;;;;;;;;;20.80;54.30;;;;;;5045537;28;1817;-69
2023/11/29 13:45:49;;;;;;;;;;;20.80;54.70;;;;;;5043239;28;1973;-70
2023/11/29 13:48:14;;;;;;;;;;;20.80;55.00;;;;;;5042071;28;1241;-69
2023/11/29 13:50:40;;;;;;;;;;;20.80;55.30;;;;;;5042676;28;1234;-69
2023/11/29 13:53:06;;;;;;;;;;;20.80;55.60;;;;;;5044640;28;1373;-69
2023/11/29 13:55:31;;;;;;;;;;;20.80;55.80;;;;;;5045670;28;1304;-69
2023/11/29 13:57:58;;;;;;;;;;;20.80;56.00;;;;;;5032300;28;1682;-69
2023/11/29 14:00:24;;;;;;;;;;;20.80;56.20;;;;;;5043370;28;1980;-69
2023/11/29 14:02:49;;;;;;;;;;;20.80;56.40;;;;;;5045576;28;1388;-69
2023/11/29 14:05:15;;;;;;;;;;;20.70;56.50;;;;;;5044083;28;1906;-69
2023/11/29 14:07:40;;;;;;;;;;;20.70;57.30;;;;;;5042047;28;2106;-69
2023/11/29 14:10:06;;;;;;;;;;;20.70;56.90;;;;;;5043922;28;1236;-69
2023/11/29 14:12:32;;;;;;;;;;;20.70;57.10;;;;;;5041791;28;1291;-68
2023/11/29 14:14:57;;;;;;;;;;;20.70;57.20;;;;;;5044337;28;1494;-69
2023/11/29 14:17:23;;;;;;;;;;;20.70;57.30;;;;;;5041698;28;1324;-69
2023/11/29 14:19:49;;;;;;;;;;;20.70;57.50;;;;;;5027926;28;1434;-69
2023/11/29 14:22:14;;;;;;;;;;;20.70;57.60;;;;;;5042790;28;1726;-69
2023/11/29 14:24:40;;;;;;;;;;;20.70;57.70;;;;;;5042044;28;1478;-69